Amelia, Nebraska
Current Conditions -  °F | °C
As of 4:15 AM on Tuesday 21 Oct 2014 (Local Time) from KONL Reporting Station
Clear Clear  
Wind Chill: 45°   Ceiling: Unl
Heat Index: 49°   Visibility: 10mi
Dew Point: 42°   Wind: 8mph
Humidity: 77%   Direction: 150°SSE
Pressure: 30.02"   Gusts: NA
Location:  42.24°N, 98.91°W
Report Text: KONL 210915Z AUTO 15007KT 10SM CLR 09/06 A3002 RMK AO2 T00930055
Loading
Personal Weather Stations






























Interactive Weather Map New forecast layout! Learn more

10-Day Weather Forecast

Advertisements
Track Severe Weather on mobile